sensor_id;sensor_type;location;lat;lon;timestamp;P1;durP1;ratioP1;P2;durP2;ratioP2
67164;SDS011;54093;50.014;19.984;2023-09-12T00:07:35;12.25;;;8.77;;
67164;SDS011;54093;50.014;19.984;2023-09-12T00:16:59;11.18;;;9.50;;
67164;SDS011;54093;50.014;19.984;2023-09-12T00:26:21;9.82;;;8.93;;
67164;SDS011;54093;50.014;19.984;2023-09-12T00:35:42;10.68;;;8.88;;
67164;SDS011;54093;50.014;19.984;2023-09-12T00:45:04;10.65;;;9.55;;
67164;SDS011;54093;50.014;19.984;2023-09-12T00:54:25;10.18;;;9.18;;
67164;SDS011;54093;50.014;19.984;2023-09-12T01:03:46;10.90;;;9.93;;
67164;SDS011;54093;50.014;19.984;2023-09-12T01:13:07;13.63;;;9.68;;
67164;SDS011;54093;50.014;19.984;2023-09-12T01:32:12;12.68;;;10.27;;
67164;SDS011;54093;50.014;19.984;2023-09-12T01:41:35;10.35;;;9.35;;
67164;SDS011;54093;50.014;19.984;2023-09-12T01:51:01;11.30;;;10.32;;
67164;SDS011;54093;50.014;19.984;2023-09-12T02:00:22;9.73;;;8.82;;
67164;SDS011;54093;50.014;19.984;2023-09-12T02:09:43;9.05;;;8.23;;
67164;SDS011;54093;50.014;19.984;2023-09-12T02:19:05;13.43;;;8.63;;
67164;SDS011;54093;50.014;19.984;2023-09-12T02:28:26;9.25;;;7.80;;
67164;SDS011;54093;50.014;19.984;2023-09-12T02:37:47;9.77;;;8.38;;
67164;SDS011;54093;50.014;19.984;2023-09-12T02:47:08;10.32;;;9.63;;
67164;SDS011;54093;50.014;19.984;2023-09-12T02:56:29;8.57;;;7.88;;
67164;SDS011;54093;50.014;19.984;2023-09-12T03:05:58;10.05;;;9.20;;
67164;SDS011;54093;50.014;19.984;2023-09-12T03:15:24;9.57;;;8.52;;
67164;SDS011;54093;50.014;19.984;2023-09-12T03:24:45;9.85;;;9.05;;
67164;SDS011;54093;50.014;19.984;2023-09-12T03:34:06;7.82;;;7.18;;
67164;SDS011;54093;50.014;19.984;2023-09-12T03:43:27;8.00;;;7.40;;
67164;SDS011;54093;50.014;19.984;2023-09-12T03:52:48;8.35;;;7.05;;
67164;SDS011;54093;50.014;19.984;2023-09-12T04:02:09;8.38;;;7.10;;
67164;SDS011;54093;50.014;19.984;2023-09-12T04:11:30;9.57;;;8.65;;
67164;SDS011;54093;50.014;19.984;2023-09-12T04:20:51;11.30;;;10.38;;
67164;SDS011;54093;50.014;19.984;2023-09-12T04:30:13;9.32;;;8.68;;
67164;SDS011;54093;50.014;19.984;2023-09-12T04:39:34;9.23;;;7.18;;
67164;SDS011;54093;50.014;19.984;2023-09-12T04:48:55;8.90;;;7.97;;
67164;SDS011;54093;50.014;19.984;2023-09-12T04:58:16;10.27;;;7.82;;
67164;SDS011;54093;50.014;19.984;2023-09-12T05:07:37;10.18;;;8.05;;
67164;SDS011;54093;50.014;19.984;2023-09-12T05:16:58;8.95;;;8.25;;
67164;SDS011;54093;50.014;19.984;2023-09-12T05:26:20;9.23;;;8.32;;
67164;SDS011;54093;50.014;19.984;2023-09-12T05:35:41;9.57;;;8.52;;
67164;SDS011;54093;50.014;19.984;2023-09-12T05:45:02;10.18;;;8.48;;
67164;SDS011;54093;50.014;19.984;2023-09-12T05:54:24;7.95;;;7.35;;
67164;SDS011;54093;50.014;19.984;2023-09-12T06:03:45;7.55;;;6.85;;
67164;SDS011;54093;50.014;19.984;2023-09-12T06:13:06;8.77;;;8.07;;
67164;SDS011;54093;50.014;19.984;2023-09-12T06:22:27;12.02;;;8.73;;
67164;SDS011;54093;50.014;19.984;2023-09-12T06:31:48;7.95;;;7.15;;
67164;SDS011;54093;50.014;19.984;2023-09-12T06:41:10;7.38;;;6.68;;
67164;SDS011;54093;50.014;19.984;2023-09-12T06:50:31;6.93;;;6.30;;
67164;SDS011;54093;50.014;19.984;2023-09-12T06:59:52;8.65;;;6.90;;
67164;SDS011;54093;50.014;19.984;2023-09-12T07:09:13;7.35;;;6.63;;
67164;SDS011;54093;50.014;19.984;2023-09-12T07:18:35;13.70;;;8.07;;
67164;SDS011;54093;50.014;19.984;2023-09-12T07:27:56;7.35;;;6.28;;
67164;SDS011;54093;50.014;19.984;2023-09-12T07:37:17;8.93;;;6.50;;
67164;SDS011;54093;50.014;19.984;2023-09-12T07:46:40;9.10;;;8.20;;
67164;SDS011;54093;50.014;19.984;2023-09-12T07:56:01;7.28;;;6.20;;
67164;SDS011;54093;50.014;19.984;2023-09-12T08:05:22;6.88;;;6.05;;
67164;SDS011;54093;50.014;19.984;2023-09-12T08:14:43;6.20;;;5.70;;
67164;SDS011;54093;50.014;19.984;2023-09-12T08:24:05;7.97;;;5.90;;
67164;SDS011;54093;50.014;19.984;2023-09-12T08:33:26;9.20;;;7.53;;
67164;SDS011;54093;50.014;19.984;2023-09-12T08:42:47;6.97;;;5.97;;
67164;SDS011;54093;50.014;19.984;2023-09-12T08:52:12;6.35;;;5.93;;
67164;SDS011;54093;50.014;19.984;2023-09-12T09:01:33;6.05;;;5.40;;
67164;SDS011;54093;50.014;19.984;2023-09-12T09:10:58;6.60;;;5.53;;
67164;SDS011;54093;50.014;19.984;2023-09-12T09:20:25;11.00;;;6.28;;
67164;SDS011;54093;50.014;19.984;2023-09-12T09:29:55;5.70;;;5.18;;
67164;SDS011;54093;50.014;19.984;2023-09-12T09:39:17;5.47;;;5.07;;
67164;SDS011;54093;50.014;19.984;2023-09-12T09:48:39;5.93;;;5.32;;
67164;SDS011;54093;50.014;19.984;2023-09-12T09:58:14;5.45;;;5.15;;
67164;SDS011;54093;50.014;19.984;2023-09-12T10:07:39;6.45;;;5.68;;
67164;SDS011;54093;50.014;19.984;2023-09-12T10:17:03;5.40;;;5.00;;
67164;SDS011;54093;50.014;19.984;2023-09-12T10:26:25;6.03;;;5.28;;
67164;SDS011;54093;50.014;19.984;2023-09-12T10:35:46;7.20;;;5.13;;
67164;SDS011;54093;50.014;19.984;2023-09-12T10:45:10;5.50;;;5.20;;
67164;SDS011;54093;50.014;19.984;2023-09-12T10:54:36;5.68;;;5.30;;
67164;SDS011;54093;50.014;19.984;2023-09-12T11:04:29;7.20;;;4.45;;
67164;SDS011;54093;50.014;19.984;2023-09-12T11:14:04;10.82;;;4.80;;
67164;SDS011;54093;50.014;19.984;2023-09-12T11:23:28;9.60;;;4.03;;
67164;SDS011;54093;50.014;19.984;2023-09-12T11:32:50;4.10;;;3.88;;
67164;SDS011;54093;50.014;19.984;2023-09-12T11:42:12;5.10;;;4.70;;
67164;SDS011;54093;50.014;19.984;2023-09-12T12:00:56;5.25;;;4.93;;
67164;SDS011;54093;50.014;19.984;2023-09-12T12:10:20;5.47;;;4.10;;
67164;SDS011;54093;50.014;19.984;2023-09-12T12:19:46;4.90;;;4.60;;
67164;SDS011;54093;50.014;19.984;2023-09-12T12:29:07;5.22;;;4.82;;
67164;SDS011;54093;50.014;19.984;2023-09-12T12:38:36;4.88;;;4.45;;
67164;SDS011;54093;50.014;19.984;2023-09-12T12:47:59;5.13;;;4.78;;
67164;SDS011;54093;50.014;19.984;2023-09-12T12:57:22;5.88;;;4.07;;
67164;SDS011;54093;50.014;19.984;2023-09-12T13:06:43;7.25;;;4.47;;
67164;SDS011;54093;50.014;19.984;2023-09-12T13:16:05;5.15;;;4.75;;
67164;SDS011;54093;50.014;19.984;2023-09-12T13:25:30;5.53;;;5.03;;
67164;SDS011;54093;50.014;19.984;2023-09-12T13:34:54;5.05;;;4.43;;
67164;SDS011;54093;50.014;19.984;2023-09-12T13:44:16;4.57;;;4.35;;
67164;SDS011;54093;50.014;19.984;2023-09-12T13:53:38;6.60;;;5.40;;
67164;SDS011;54093;50.014;19.984;2023-09-12T14:12:22;5.00;;;4.70;;
67164;SDS011;54093;50.014;19.984;2023-09-12T14:21:43;4.70;;;4.40;;
67164;SDS011;54093;50.014;19.984;2023-09-12T14:31:07;8.93;;;4.72;;
67164;SDS011;54093;50.014;19.984;2023-09-12T14:40:34;10.07;;;4.55;;
67164;SDS011;54093;50.014;19.984;2023-09-12T14:49:55;5.88;;;4.55;;
67164;SDS011;54093;50.014;19.984;2023-09-12T14:59:16;6.93;;;4.90;;
67164;SDS011;54093;50.014;19.984;2023-09-12T15:08:38;4.85;;;4.55;;
67164;SDS011;54093;50.014;19.984;2023-09-12T15:17:59;5.70;;;5.00;;
67164;SDS011;54093;50.014;19.984;2023-09-12T15:27:21;5.35;;;4.93;;
67164;SDS011;54093;50.014;19.984;2023-09-12T15:36:43;35.90;;;14.27;;
67164;SDS011;54093;50.014;19.984;2023-09-12T15:46:07;77.15;;;21.92;;
67164;SDS011;54093;50.014;19.984;2023-09-12T15:55:28;9.27;;;6.85;;
67164;SDS011;54093;50.014;19.984;2023-09-12T16:04:49;9.75;;;6.13;;
67164;SDS011;54093;50.014;19.984;2023-09-12T16:14:11;6.28;;;5.80;;
67164;SDS011;54093;50.014;19.984;2023-09-12T16:23:33;8.93;;;5.60;;
67164;SDS011;54093;50.014;19.984;2023-09-12T16:32:54;7.60;;;5.82;;
67164;SDS011;54093;50.014;19.984;2023-09-12T16:42:16;5.93;;;5.53;;
67164;SDS011;54093;50.014;19.984;2023-09-12T16:51:37;7.47;;;6.07;;
67164;SDS011;54093;50.014;19.984;2023-09-12T17:00:58;6.93;;;6.32;;
67164;SDS011;54093;50.014;19.984;2023-09-12T17:10:19;10.52;;;7.72;;
67164;SDS011;54093;50.014;19.984;2023-09-12T17:19:41;9.40;;;8.05;;
67164;SDS011;54093;50.014;19.984;2023-09-12T17:29:04;7.55;;;6.80;;
67164;SDS011;54093;50.014;19.984;2023-09-12T17:38:25;7.93;;;6.95;;
67164;SDS011;54093;50.014;19.984;2023-09-12T17:47:46;7.65;;;6.88;;
67164;SDS011;54093;50.014;19.984;2023-09-12T17:57:07;9.75;;;6.95;;
67164;SDS011;54093;50.014;19.984;2023-09-12T18:06:28;8.40;;;6.60;;
67164;SDS011;54093;50.014;19.984;2023-09-12T18:15:52;8.00;;;7.07;;
67164;SDS011;54093;50.014;19.984;2023-09-12T18:25:13;7.63;;;6.38;;
67164;SDS011;54093;50.014;19.984;2023-09-12T18:34:36;9.73;;;6.72;;
67164;SDS011;54093;50.014;19.984;2023-09-12T18:43:57;8.10;;;7.25;;
67164;SDS011;54093;50.014;19.984;2023-09-12T18:53:18;10.57;;;8.88;;
67164;SDS011;54093;50.014;19.984;2023-09-12T19:02:41;10.50;;;7.25;;
67164;SDS011;54093;50.014;19.984;2023-09-12T19:12:02;7.82;;;7.22;;
67164;SDS011;54093;50.014;19.984;2023-09-12T19:21:26;10.35;;;9.35;;
67164;SDS011;54093;50.014;19.984;2023-09-12T19:30:48;13.57;;;9.93;;
67164;SDS011;54093;50.014;19.984;2023-09-12T19:40:09;10.90;;;9.82;;
67164;SDS011;54093;50.014;19.984;2023-09-12T19:49:35;15.77;;;9.27;;
67164;SDS011;54093;50.014;19.984;2023-09-12T19:58:56;14.13;;;9.82;;
67164;SDS011;54093;50.014;19.984;2023-09-12T20:08:17;12.48;;;10.18;;
67164;SDS011;54093;50.014;19.984;2023-09-12T20:17:39;10.73;;;9.65;;
67164;SDS011;54093;50.014;19.984;2023-09-12T20:27:00;12.00;;;9.43;;
67164;SDS011;54093;50.014;19.984;2023-09-12T20:36:21;11.50;;;10.25;;
67164;SDS011;54093;50.014;19.984;2023-09-12T20:45:45;14.65;;;12.60;;
67164;SDS011;54093;50.014;19.984;2023-09-12T20:55:08;10.93;;;9.75;;
67164;SDS011;54093;50.014;19.984;2023-09-12T21:04:29;11.13;;;9.93;;
67164;SDS011;54093;50.014;19.984;2023-09-12T21:13:51;12.95;;;9.27;;
67164;SDS011;54093;50.014;19.984;2023-09-12T21:23:31;9.57;;;8.70;;
67164;SDS011;54093;50.014;19.984;2023-09-12T21:32:52;12.50;;;9.23;;
67164;SDS011;54093;50.014;19.984;2023-09-12T21:42:14;9.65;;;8.88;;
67164;SDS011;54093;50.014;19.984;2023-09-12T21:51:40;11.35;;;9.50;;
67164;SDS011;54093;50.014;19.984;2023-09-12T22:01:17;14.43;;;11.73;;
67164;SDS011;54093;50.014;19.984;2023-09-12T22:10:39;10.93;;;8.85;;
67164;SDS011;54093;50.014;19.984;2023-09-12T22:20:04;10.27;;;9.32;;
67164;SDS011;54093;50.014;19.984;2023-09-12T22:29:29;10.82;;;9.63;;
67164;SDS011;54093;50.014;19.984;2023-09-12T22:38:50;9.48;;;8.50;;
67164;SDS011;54093;50.014;19.984;2023-09-12T22:48:11;9.63;;;8.52;;
67164;SDS011;54093;50.014;19.984;2023-09-12T22:57:36;12.17;;;10.00;;
67164;SDS011;54093;50.014;19.984;2023-09-12T23:06:57;10.85;;;9.65;;
67164;SDS011;54093;50.014;19.984;2023-09-12T23:16:24;30.80;;;14.93;;
67164;SDS011;54093;50.014;19.984;2023-09-12T23:25:46;18.20;;;11.55;;
67164;SDS011;54093;50.014;19.984;2023-09-12T23:35:08;12.88;;;11.57;;
67164;SDS011;54093;50.014;19.984;2023-09-12T23:44:30;10.85;;;9.75;;
67164;SDS011;54093;50.014;19.984;2023-09-12T23:53:54;10.48;;;9.40;;
